Zhangjiakou, China
Current Conditions -  °F | °C
As of 7:30 PM on Thursday 18 Dec 2014 (Local Time) from ZBAA Reporting Station
Haze Haze  
Wind Chill: 30°   Ceiling: Unl
Heat Index: 30°   Visibility: 3mi
Dew Point: 21°   Wind: 2mph
Humidity: 69%   Direction: NA
Pressure: 30.3"   Gusts: NA
Location:  40.83°N, 114.93°E
Report Text: ZBAA 181130Z VRB01MPS 5000 HZ NSC M01/M06 Q1026 NOSIG
Loading
Personal Weather Stations






























Interactive Weather Map New forecast layout! Learn more

10-Day Weather Forecast

Advertisements
Track Severe Weather on mobile